Bethesda, MD (20817)

6:02 PM EDT on September 20, 2014 (GMT -0400)
Burning Tree Estates | Change Station
CLOSE
Current Station
Personal Weather Station
Location: Bethesda, MD
Elevation: 245 ft
Nearby Weather Stations

Elev 245 ft 39.01 °N, 77.16 °W | Updated 2 minutes ago

Partly Cloudy
Partly Cloudy
76.3 °F
Feels Like 78 °F
N
0.0
Wind Variable Wind from North
Gusts 0.0 mph

Today
High -- | Low -- °F
--% Chance of Precip.
Yesterday
High -- | Low -- °F
Precip. -- in
6:54 AM 7:08 PM
Waning Crescent, 10% visible
Pressure 30.12 in
Visibility 10.0 miles
Clouds Clear
Heat Index 78 °F
Dew Point 59 °F
Humidity 56%
Rainfall 0.00 in
Snow Depth Not available.
UV 1 out of 12
Pollen 4.10 out of 12
Air Quality Not available.
Flu Activity Not available.
METAR KGAI 202155Z 10005KT 10SM CLR 23/16 A3012 RMK AO1

More Conditions Fewer Conditions

Pressure 30.12 in
Visibility 10.0 miles
Clouds Clear
Heat Index 78 °F
Dew Point 59 °F
Humidity 56%
Rainfall 0.00 in
Snow Depth Not available.
UV 1 out of 12
Pollen 4.10 out of 12
Air Quality Not available.
Flu Activity Not available.
METAR KGAI 202155Z 10005KT 10SM CLR 23/16 A3012 RMK AO1

More Conditions Fewer Conditions

10-Day Weather Forecast

Almanac

Astronomy

Sep. 20, 2014 Rise Set
Actual Time 6:54 AM EDT 7:08 PM EDT
Civil Twilight 6:27 AM EDT 7:35 PM EDT
Nautical Twilight 5:56 AM EDT 8:06 PM EDT
Astronomical Twilight 5:24 AM EDT 8:38 PM EDT
Moon 3:33 AM EDT 5:10 PM EDT
Length of Visible Light 13h 07m
Length of Day
12h 14m
Tomorrow will be 2m 31s shorter.
Waning Crescent, 10% of the Moon is Illuminated
Today
Waning Crescent
Sep 24
New
Oct 1
First Quarter
Oct 8
Full
Oct 15
Last Quarter

Today's Extremes

State Highs State Lows

Community

WunderPhotos

Upload Photos

1,754,966 photos uploaded!

WunderBlogs® & News

Nearby

Snow Depth

Station Depth Elevation
No new snow has been reported.

Earthquake Activity

City Distance Mag. Time & Date
No recent earthquake activity has been reported nearby.
Minimum magnitude displayed is 2.5.

Coastal Water Temperatures

Place Temperature
Washington, DC 73.9 °F
Baltimore, MD 75.9 °F
Solomons Island, MD 77.0 °F

Nearby Weather Stations